Bookmark and Share
Track history (hours):
 

Galicia

Last reported at 2014-Apr-19 02:33 UTC. Time now 2014-Apr-24 04:06 UTC.
Position N 50°17' W 001°20'.

Length 149 m; draft 5.7 m.

Type: Cargo ship. MMSI: 224548000.

NotesDate/timePositionNaut miles runAvg speedWind from/ knotsBaromVisibWave heightAir tempDewpointWater temp
2014-Apr-19 02:33N 50°17' W 001°20'1616.4
2014-Apr-19 01:33N 50°21' W 000°55'4413.3
2014-Apr-18 22:14N 50°33' E 000°12'913.3
2014-Apr-18 21:33N 50°36' E 000°25'1514.8
2014-Apr-18 20:33N 50°43' E 000°46'2516.9
2014-Apr-18 19:04N 50°59' E 001°17'816.3
2014-Apr-18 18:34N 51°04' E 001°27'1515.1
2014-Apr-18 17:34N 51°14' E 001°45'1413.7
2014-Apr-18 16:33N 51°24' E 001°60'1413.5
2014-Apr-18 15:33N 51°21' E 002°21'1312.9
2014-Apr-18 14:33N 51°23' E 002°41'1312.7
2014-Apr-18 13:33N 51°22' E 003°01'8 7.3
2014-Apr-18 12:31N 51°20' E 003°13'2 1.6
2014-Apr-18 11:31N 51°18' E 003°14'0 0.0
2014-Apr-18 10:28N 51°19' E 003°14'0 0.0
2014-Apr-18 09:25N 51°19' E 003°14'0 0.0
2014-Apr-18 08:28N 51°19' E 003°14'0 0.0
2014-Apr-18 07:25N 51°18' E 003°14'0 0.0
2014-Apr-18 06:31N 51°19' E 003°14'0 0.0
2014-Apr-18 05:31N 51°19' E 003°14'0 0.0
2014-Apr-18 04:33N 51°19' E 003°14'0 0.0
2014-Apr-18 03:33N 51°19' E 003°14'0 0.0
2014-Apr-18 02:33N 51°19' E 003°14'0 0.0
2014-Apr-18 01:33N 51°19' E 003°14'0 0.0
2014-Apr-18 00:33N 51°19' E 003°14'0 0.0
2014-Apr-17 23:33N 51°19' E 003°14'0 0.0
2014-Apr-17 22:33N 51°19' E 003°14'0 0.0
2014-Apr-17 21:33N 51°19' E 003°14'0 0.0
2014-Apr-17 20:33N 51°19' E 003°14'0 0.0
2014-Apr-17 19:33N 51°19' E 003°14'2 1.5
2014-Apr-17 18:29N 51°20' E 003°13'5 5.8
2014-Apr-17 17:33N 51°24' E 003°07'1515.3
2014-Apr-17 16:33N 51°22' E 002°42'1414.3
2014-Apr-17 15:33N 51°19' E 002°20'1414.5
2014-Apr-17 14:34N 51°25' E 001°58'1515.1
2014-Apr-17 13:34N 51°29' E 001°35'1313.2
2014-Apr-17 12:33N 51°29' E 001°14'1413.7
2014-Apr-17 11:34N 51°29' E 000°52'5 4.8
2014-Apr-17 10:33N 51°27' E 000°45'0 0.0
2014-Apr-17 09:33N 51°27' E 000°45'0 0.0
2014-Apr-17 08:27N 51°27' E 000°45'0 0.0
2014-Apr-17 07:33N 51°27' E 000°45'0 0.0
2014-Apr-17 06:33N 51°27' E 000°45'0 0.0
2014-Apr-17 05:33N 51°27' E 000°45'0 0.0
2014-Apr-17 04:33N 51°27' E 000°45'0 0.0
2014-Apr-17 03:33N 51°27' E 000°45'0 0.0
2014-Apr-17 02:30N 51°27' E 000°45'0 0.0
2014-Apr-17 01:30N 51°27' E 000°45'0 0.0
2014-Apr-17 00:33N 51°27' E 000°45'0 0.0
2014-Apr-16 23:33N 51°27' E 000°45'0 0.0
2014-Apr-16 22:30N 51°27' E 000°45'0 0.0
2014-Apr-16 21:33N 51°27' E 000°45'0 0.0
2014-Apr-16 20:30N 51°27' E 000°45'0 0.0
2014-Apr-16 19:33N 51°27' E 000°45'0 0.0
2014-Apr-16 18:33N 51°27' E 000°45'9 9.2
2014-Apr-16 17:34N 51°29' E 000°59'1313.0
2014-Apr-16 16:34N 51°29' E 001°19'1110.8
2014-Apr-16 15:34N 51°31' E 001°36'1312.5
2014-Apr-16 14:34N 51°42' E 001°45'1313.1
2014-Apr-16 13:33N 51°55' E 001°45'1313.5
2014-Apr-16 12:34N 52°08' E 001°50'1514.9
2014-Apr-16 11:33N 52°23' E 001°56'1615.9
2014-Apr-16 10:33N 52°38' E 002°03'1414.5
2014-Apr-16 09:33N 52°50' E 001°48'1716.9
2014-Apr-16 08:33N 53°01' E 001°27'1716.7
2014-Apr-16 07:33N 53°15' E 001°13'3716.4
2014-Apr-16 05:19N 53°47' E 000°41'1216.5
2014-Apr-16 04:33N 53°58' E 000°31'1616.3
2014-Apr-16 03:33N 54°10' E 000°12'1616.2
2014-Apr-16 02:34N 54°21' W 000°08'1615.6
2014-Apr-16 01:34N 54°32' W 000°27'1514.9
2014-Apr-16 00:33N 54°42' W 000°46'1514.6
2014-Apr-15 23:33N 54°52' W 001°04'1413.4
2014-Apr-15 22:31N 55°01' W 001°23'3 0.5
2014-Apr-15 17:12N 54°59' W 001°27'2 3.2
2014-Apr-15 16:33N 55°01' W 001°24'1110.5
2014-Apr-15 15:32N 54°55' W 001°09'1414.5
2014-Apr-15 14:33N 54°45' W 000°51'29 9.8
2014-Apr-15 11:34N 54°25' W 000°15'1615.6
2014-Apr-15 10:34N 54°14' E 000°05'1616.1
2014-Apr-15 09:34N 54°03' E 000°24'5914.8
2014-Apr-15 05:34N 53°12' E 001°16'2713.5
2014-Apr-15 03:34N 52°51' E 001°45'1515.1
2014-Apr-15 02:34N 52°41' E 002°04'1717.1
2014-Apr-15 01:34N 52°24' E 001°58'1717.1
2014-Apr-15 00:34N 52°08' E 001°53'1616.5
2014-Apr-14 23:33N 51°51' E 001°49'1515.2
2014-Apr-14 22:34N 51°36' E 001°49'1515.2
2014-Apr-14 21:34N 51°22' E 001°42'1413.6
2014-Apr-14 20:34N 51°08' E 001°37'1211.8
2014-Apr-14 19:32N 50°58' E 001°29'2412.1
2014-Apr-14 17:33N 50°37' E 001°10'1313.4
2014-Apr-14 16:34N 50°30' E 000°52'2813.8
2014-Apr-14 14:33N 50°21' E 000°11'5212.9
2014-Apr-14 10:30N 50°07' W 001°08'  
2014-Apr-11 23:24N 38°05' W 009°41'1314.7
2014-Apr-11 22:33N 37°54' W 009°37'1514.7
2014-Apr-11 21:33N 37°39' W 009°32'230 8.7
2014-Apr-10 19:08N 34°14' W 007°24'12115.3
2014-Apr-10 11:14N 35°52' W 005°57'2414.2
2014-Apr-10 09:34N 35°59' W 005°29'1413.7
2014-Apr-10 08:33N 36°04' W 005°14'23913.9
2014-Apr-09 15:18N 37°32' W 000°36'1215.4
2014-Apr-09 14:33N 37°42' W 000°27'14315.8
2014-Apr-09 05:27N 39°45' E 001°07'1416.3
2014-Apr-09 04:33N 39°58' E 001°15'1716.8
2014-Apr-09 03:33N 40°13' E 001°26'  

Dump ship's entire track history

sailing weather and tide predictions

Galicia — ECEC — position and weather